Phoenix, AZ

11:45 PM MST on May 04, 2015 (GMT -0700)
APRSWXNET | | Change Station
CLOSE
Current Station
Personal Weather Station
Location: Phoenix, AZ
Elevation: 1115 ft
Nearby Weather Stations

Elev 1115 ft 33.49 °N, 112.07 °W | Updated 20 minutes ago

Overcast
Overcast
67 °F
Feels Like 67 °F
N
0
Wind Variable Wind from North
Gusts 1.0 mph

Today
High -- | Low -- °F
--% Chance of Precip.
Yesterday
High -- | Low -- °F
Precip. -- in
5:37 AM 7:13 PM
Full, 99% visible
Pressure 29.82 in
Visibility 10.0 miles
Clouds Few 5000 ft
Scattered Clouds 7500 ft
Mostly Cloudy 11000 ft
Overcast 20000 ft
Dew Point 51 °F
Humidity 57%
Rainfall in
Snow Depth Not available.
UV 0 out of 12
Pollen 3.70 out of 12
Air Quality Not available.
Flu Activity Local Activity
METAR KPHX 050551Z 27013KT 10SM FEW050 SCT075 BKN110 OVC200 22/09 A2986 RMK AO2 SLP096 T02170089 10272 20206 51011

More Conditions Fewer Conditions

Pressure 29.82 in
Visibility 10.0 miles
Clouds Few 5000 ft
Scattered Clouds 7500 ft
Mostly Cloudy 11000 ft
Overcast 20000 ft
Dew Point 51 °F
Humidity 57%
Rainfall in
Snow Depth Not available.
UV 0 out of 12
Pollen 3.70 out of 12
Air Quality Not available.
Flu Activity Local Activity
METAR KPHX 050551Z 27013KT 10SM FEW050 SCT075 BKN110 OVC200 22/09 A2986 RMK AO2 SLP096 T02170089 10272 20206 51011

More Conditions Fewer Conditions

Nepal has a long way to go to dig out and rebuild from a devastating earthquake. We have teamed up with several charities and organizations to make contributing to the relief effort as easy as possible.
How you can help: Portlight Strategies | Red Cross

10-Day Weather Forecast

Almanac

Astronomy

May. 04, 2015 Rise Set
Actual Time
Civil Twilight
Nautical Twilight
Astronomical Twilight
Moon
Length of Visible Light
Length of Day
Tomorrow will be .
, % of the Moon is Illuminated

Today's Extremes

State Highs State Lows

Community

WunderPhotos

Upload Photos

1,818,814 photos uploaded!

WunderBlogs® & News

Nearby

Air Quality

  Air Quality AQ Index Pollutant
Not available.

Snow Depth

Station Depth Elevation

Earthquake Activity

City Distance Mag. Time & Date
Minimum magnitude displayed is 2.5.

Coastal Water Temperatures

Place Temperature

Stations

Nearby Weather Stations

Station Location Temp. Windchill Dew Point Humidity Wind Precip. Elev Updated Type